createdAt,value
2019-04-06T00:02:24.383Z,23.03
2019-04-06T00:12:26.526Z,25.47
2019-04-06T00:22:27.251Z,28.30
2019-04-06T00:32:28.390Z,24.63
2019-04-06T00:42:32.491Z,26.90
2019-04-06T00:52:33.223Z,29.50
2019-04-06T01:02:35.270Z,34.53
2019-04-06T01:12:38.029Z,29.83
2019-04-06T01:22:39.146Z,31.97
2019-04-06T01:32:40.207Z,25.23
2019-04-06T01:42:41.381Z,24.07
2019-04-06T01:52:42.203Z,24.07
2019-04-06T02:02:42.840Z,26.67
2019-04-06T02:12:44.491Z,24.30
2019-04-06T02:22:45.266Z,27.83
2019-04-06T02:32:46.323Z,25.00
2019-04-06T02:42:47.545Z,28.47
2019-04-06T02:52:48.895Z,24.53
2019-04-06T03:02:51.719Z,23.00
2019-04-06T03:12:52.629Z,24.87
2019-04-06T03:22:55.842Z,19.87
2019-04-06T03:32:57.060Z,20.63
2019-04-06T03:42:58.332Z,20.40
2019-04-06T03:52:59.428Z,24.43
2019-04-06T04:03:01.688Z,23.40
2019-04-06T04:13:04.003Z,20.87
2019-04-06T04:23:05.130Z,21.90
2019-04-06T04:33:06.623Z,22.17
2019-04-06T04:43:08.738Z,22.53
2019-04-06T04:53:09.635Z,20.43
2019-04-06T05:03:11.242Z,30.50
2019-04-06T05:13:14.018Z,34.70
2019-04-06T05:23:15.101Z,32.40
2019-04-06T05:33:16.122Z,34.57
2019-04-06T05:43:16.786Z,27.03
2019-04-06T05:53:17.541Z,19.63
2019-04-06T06:03:18.310Z,29.20
2019-04-06T06:13:19.051Z,24.00
2019-04-06T06:23:21.172Z,29.20
2019-04-06T06:33:22.574Z,28.93
2019-04-06T06:43:23.660Z,28.20
2019-04-06T06:53:24.283Z,29.77
2019-04-06T07:03:25.292Z,19.63
2019-04-06T07:13:26.200Z,19.40
2019-04-06T07:23:27.853Z,22.90
2019-04-06T07:33:36.690Z,24.03
2019-04-06T07:43:38.240Z,21.00
2019-04-06T07:53:49.564Z,20.53
2019-04-06T08:03:50.918Z,22.10
2019-04-06T08:13:51.592Z,21.30
2019-04-06T08:23:52.590Z,21.67
2019-04-06T08:33:53.555Z,22.67
2019-04-06T08:43:54.356Z,25.70
2019-04-06T08:53:55.350Z,22.40
2019-04-06T09:03:56.621Z,21.20
2019-04-06T09:13:57.255Z,24.03
2019-04-06T09:23:58.922Z,23.10
2019-04-06T09:34:00.065Z,24.00
2019-04-06T09:44:01.440Z,24.00
2019-04-06T09:54:06.648Z,21.77
2019-04-06T10:04:05.248Z,20.83
2019-04-06T10:14:06.421Z,21.00
2019-04-06T10:24:07.089Z,21.30
2019-04-06T10:34:08.167Z,21.20
2019-04-06T10:44:08.909Z,21.50
2019-04-06T10:54:10.116Z,21.23
2019-04-06T11:04:11.109Z,21.70
2019-04-06T11:14:12.194Z,21.67
2019-04-06T11:24:12.875Z,21.27
2019-04-06T11:34:13.562Z,22.57
2019-04-06T11:44:14.232Z,21.53
2019-04-06T11:54:14.947Z,21.53
2019-04-06T12:04:16.227Z,21.23
2019-04-06T12:14:16.916Z,20.83
2019-04-06T12:24:18.858Z,21.30
2019-04-06T12:34:19.605Z,23.07
2019-04-06T12:44:20.888Z,22.03
2019-04-06T12:54:21.965Z,23.33
2019-04-06T13:04:23.678Z,22.87
2019-04-06T13:14:25.067Z,27.63
2019-04-06T13:24:26.126Z,19.73
2019-04-06T13:34:26.856Z,17.83
2019-04-06T13:44:28.310Z,17.50
2019-04-06T13:54:29.334Z,18.70
2019-04-06T14:04:30.091Z,17.87
2019-04-06T14:14:31.496Z,18.60
2019-04-06T14:24:32.760Z,18.57
2019-04-06T14:34:33.633Z,18.77
2019-04-06T14:44:34.581Z,18.77
2019-04-06T14:54:36.073Z,17.17
2019-04-06T15:04:37.001Z,16.60
2019-04-06T15:14:46.904Z,15.87
2019-04-06T15:24:47.782Z,14.87
2019-04-06T15:34:48.663Z,14.93
2019-04-06T15:44:50.614Z,15.03
2019-04-06T15:54:51.975Z,14.97
2019-04-06T16:04:52.974Z,16.23
2019-04-06T16:14:54.210Z,16.97
2019-04-06T16:24:55.185Z,16.80
2019-04-06T16:45:05.169Z,18.13
2019-04-06T16:55:06.410Z,18.57
2019-04-06T17:05:07.607Z,19.63
2019-04-06T17:15:16.717Z,18.43
2019-04-06T17:25:18.029Z,18.90
2019-04-06T17:35:18.659Z,18.57
2019-04-06T17:45:20.689Z,19.70
2019-04-06T17:55:23.517Z,18.13
2019-04-06T18:05:24.611Z,22.27
2019-04-06T18:15:25.356Z,17.67
2019-04-06T18:25:31.476Z,18.80
2019-04-06T18:35:32.621Z,20.80
2019-04-06T18:45:33.580Z,22.73
2019-04-06T18:55:34.545Z,19.50
2019-04-06T19:05:35.328Z,20.87
2019-04-06T19:15:36.281Z,19.80
2019-04-06T19:25:37.595Z,20.53
2019-04-06T19:35:38.578Z,19.03
2019-04-06T19:45:39.639Z,19.77
2019-04-06T19:55:40.289Z,19.87
2019-04-06T20:05:41.300Z,19.40
2019-04-06T20:15:42.017Z,20.63
2019-04-06T20:25:42.948Z,20.60
2019-04-06T20:35:44.009Z,20.20
2019-04-06T20:45:45.362Z,20.10
2019-04-06T20:55:46.293Z,18.97
2019-04-06T21:05:47.685Z,19.57
2019-04-06T21:15:48.852Z,21.33
2019-04-06T21:25:50.753Z,21.13
2019-04-06T21:35:51.879Z,21.27
2019-04-06T21:45:53.649Z,24.80
2019-04-06T21:56:02.141Z,22.50
2019-04-06T22:05:58.020Z,22.20
2019-04-06T22:15:58.941Z,22.17
2019-04-06T22:26:00.476Z,25.50
2019-04-06T22:36:01.456Z,24.20
2019-04-06T22:46:02.269Z,26.90
2019-04-06T22:56:03.322Z,23.70
2019-04-06T23:06:04.288Z,24.83
2019-04-06T23:16:05.808Z,21.87
2019-04-06T23:26:07.010Z,21.93
2019-04-06T23:36:07.856Z,23.60
2019-04-06T23:46:09.997Z,27.43
2019-04-06T23:56:14.896Z,24.47
